sensor_id;sensor_type;location;lat;lon;timestamp;pressure;altitude;pressure_sealevel;temperature
33877;BMP180;20166;51.738;7.158;2023-08-30T00:01:36;100369.00;;;15.40
33877;BMP180;20166;51.738;7.158;2023-08-30T00:04:23;100383.00;;;15.40
33877;BMP180;20166;51.738;7.158;2023-08-30T00:07:10;100365.00;;;15.40
33877;BMP180;20166;51.738;7.158;2023-08-30T00:09:58;100359.00;;;15.30
33877;BMP180;20166;51.738;7.158;2023-08-30T00:12:44;100363.00;;;15.20
33877;BMP180;20166;51.738;7.158;2023-08-30T00:15:31;100357.00;;;15.10
33877;BMP180;20166;51.738;7.158;2023-08-30T00:18:17;100360.00;;;15.10
33877;BMP180;20166;51.738;7.158;2023-08-30T00:21:05;100360.00;;;15.10
33877;BMP180;20166;51.738;7.158;2023-08-30T00:23:51;100358.00;;;15.00
33877;BMP180;20166;51.738;7.158;2023-08-30T00:26:39;100355.00;;;15.00
33877;BMP180;20166;51.738;7.158;2023-08-30T00:29:26;100361.00;;;14.90
33877;BMP180;20166;51.738;7.158;2023-08-30T00:32:12;100357.00;;;14.90
33877;BMP180;20166;51.738;7.158;2023-08-30T00:34:58;100352.00;;;14.80
33877;BMP180;20166;51.738;7.158;2023-08-30T00:37:46;100358.00;;;14.80
33877;BMP180;20166;51.738;7.158;2023-08-30T00:40:38;100353.00;;;14.80
33877;BMP180;20166;51.738;7.158;2023-08-30T00:43:24;100353.00;;;14.80
33877;BMP180;20166;51.738;7.158;2023-08-30T00:46:11;100343.00;;;14.80
33877;BMP180;20166;51.738;7.158;2023-08-30T00:48:58;100342.00;;;14.80
33877;BMP180;20166;51.738;7.158;2023-08-30T00:51:45;100337.00;;;14.70
33877;BMP180;20166;51.738;7.158;2023-08-30T00:54:33;100350.00;;;14.70
33877;BMP180;20166;51.738;7.158;2023-08-30T00:57:20;100348.00;;;14.60
33877;BMP180;20166;51.738;7.158;2023-08-30T01:00:07;100344.00;;;14.60
33877;BMP180;20166;51.738;7.158;2023-08-30T01:02:56;100334.00;;;14.60
33877;BMP180;20166;51.738;7.158;2023-08-30T01:05:42;100335.00;;;14.50
33877;BMP180;20166;51.738;7.158;2023-08-30T01:08:29;100344.00;;;14.40
33877;BMP180;20166;51.738;7.158;2023-08-30T01:11:22;100334.00;;;14.40
33877;BMP180;20166;51.738;7.158;2023-08-30T01:14:14;100324.00;;;14.40
33877;BMP180;20166;51.738;7.158;2023-08-30T01:17:02;100322.00;;;14.40
33877;BMP180;20166;51.738;7.158;2023-08-30T01:19:55;100317.00;;;14.30
33877;BMP180;20166;51.738;7.158;2023-08-30T01:22:47;100310.00;;;14.40
33877;BMP180;20166;51.738;7.158;2023-08-30T01:25:47;100299.00;;;14.40
33877;BMP180;20166;51.738;7.158;2023-08-30T01:28:39;100306.00;;;14.40
33877;BMP180;20166;51.738;7.158;2023-08-30T01:31:27;100307.00;;;14.40
33877;BMP180;20166;51.738;7.158;2023-08-30T01:34:15;100315.00;;;14.30
33877;BMP180;20166;51.738;7.158;2023-08-30T01:37:03;100317.00;;;14.30
33877;BMP180;20166;51.738;7.158;2023-08-30T01:39:51;100312.00;;;14.30
33877;BMP180;20166;51.738;7.158;2023-08-30T01:42:38;100313.00;;;14.30
33877;BMP180;20166;51.738;7.158;2023-08-30T01:45:27;100330.00;;;14.20
33877;BMP180;20166;51.738;7.158;2023-08-30T01:48:15;100331.00;;;14.20
33877;BMP180;20166;51.738;7.158;2023-08-30T01:51:03;100315.00;;;14.10
33877;BMP180;20166;51.738;7.158;2023-08-30T01:53:51;100313.00;;;14.10
33877;BMP180;20166;51.738;7.158;2023-08-30T01:56:38;100319.00;;;14.10
33877;BMP180;20166;51.738;7.158;2023-08-30T01:59:24;100315.00;;;14.00
33877;BMP180;20166;51.738;7.158;2023-08-30T02:02:12;100308.00;;;14.00
33877;BMP180;20166;51.738;7.158;2023-08-30T02:05:00;100317.00;;;14.00
33877;BMP180;20166;51.738;7.158;2023-08-30T02:07:51;100310.00;;;14.00
33877;BMP180;20166;51.738;7.158;2023-08-30T02:10:45;100319.00;;;13.90
33877;BMP180;20166;51.738;7.158;2023-08-30T02:13:35;100318.00;;;13.90
33877;BMP180;20166;51.738;7.158;2023-08-30T02:16:22;100315.00;;;13.90
33877;BMP180;20166;51.738;7.158;2023-08-30T02:19:11;100320.00;;;13.90
33877;BMP180;20166;51.738;7.158;2023-08-30T02:21:58;100316.00;;;14.00
33877;BMP180;20166;51.738;7.158;2023-08-30T02:24:44;100311.00;;;14.00
33877;BMP180;20166;51.738;7.158;2023-08-30T02:27:31;100314.00;;;14.10
33877;BMP180;20166;51.738;7.158;2023-08-30T02:30:19;100325.00;;;14.20
33877;BMP180;20166;51.738;7.158;2023-08-30T02:33:05;100331.00;;;14.20
33877;BMP180;20166;51.738;7.158;2023-08-30T02:35:53;100326.00;;;14.30
33877;BMP180;20166;51.738;7.158;2023-08-30T02:38:40;100339.00;;;14.30
33877;BMP180;20166;51.738;7.158;2023-08-30T02:41:27;100339.00;;;14.30
33877;BMP180;20166;51.738;7.158;2023-08-30T02:44:13;100332.00;;;14.30
33877;BMP180;20166;51.738;7.158;2023-08-30T02:47:00;100320.00;;;14.30
33877;BMP180;20166;51.738;7.158;2023-08-30T02:49:46;100310.00;;;14.30
33877;BMP180;20166;51.738;7.158;2023-08-30T02:52:34;100309.00;;;14.30
33877;BMP180;20166;51.738;7.158;2023-08-30T02:55:20;100304.00;;;14.30
33877;BMP180;20166;51.738;7.158;2023-08-30T02:58:06;100293.00;;;14.30
33877;BMP180;20166;51.738;7.158;2023-08-30T03:00:53;100284.00;;;14.20
33877;BMP180;20166;51.738;7.158;2023-08-30T03:03:40;100294.00;;;14.20
33877;BMP180;20166;51.738;7.158;2023-08-30T03:06:26;100274.00;;;14.20
33877;BMP180;20166;51.738;7.158;2023-08-30T03:09:14;100300.00;;;14.20
33877;BMP180;20166;51.738;7.158;2023-08-30T03:12:00;100298.00;;;14.20
33877;BMP180;20166;51.738;7.158;2023-08-30T03:14:46;100296.00;;;14.20
33877;BMP180;20166;51.738;7.158;2023-08-30T03:17:33;100291.00;;;14.20
33877;BMP180;20166;51.738;7.158;2023-08-30T03:20:21;100292.00;;;14.10
33877;BMP180;20166;51.738;7.158;2023-08-30T03:23:07;100297.00;;;14.10
33877;BMP180;20166;51.738;7.158;2023-08-30T03:25:55;100285.00;;;14.10
33877;BMP180;20166;51.738;7.158;2023-08-30T03:28:43;100284.00;;;14.10
33877;BMP180;20166;51.738;7.158;2023-08-30T03:31:29;100281.00;;;14.10
33877;BMP180;20166;51.738;7.158;2023-08-30T03:34:16;100280.00;;;14.00
33877;BMP180;20166;51.738;7.158;2023-08-30T03:37:03;100270.00;;;14.00
33877;BMP180;20166;51.738;7.158;2023-08-30T03:39:50;100280.00;;;14.00
33877;BMP180;20166;51.738;7.158;2023-08-30T03:42:37;100278.00;;;14.00
33877;BMP180;20166;51.738;7.158;2023-08-30T03:45:23;100275.00;;;13.90
33877;BMP180;20166;51.738;7.158;2023-08-30T03:48:10;100271.00;;;13.90
33877;BMP180;20166;51.738;7.158;2023-08-30T03:50:57;100271.00;;;13.90
33877;BMP180;20166;51.738;7.158;2023-08-30T03:53:44;100265.00;;;13.90
33877;BMP180;20166;51.738;7.158;2023-08-30T03:56:31;100256.00;;;13.90
33877;BMP180;20166;51.738;7.158;2023-08-30T03:59:19;100258.00;;;13.80
33877;BMP180;20166;51.738;7.158;2023-08-30T04:02:10;100267.00;;;13.80
33877;BMP180;20166;51.738;7.158;2023-08-30T04:04:57;100257.00;;;13.90
33877;BMP180;20166;51.738;7.158;2023-08-30T04:07:43;100260.00;;;14.00
33877;BMP180;20166;51.738;7.158;2023-08-30T04:10:29;100259.00;;;14.00
33877;BMP180;20166;51.738;7.158;2023-08-30T04:13:20;100259.00;;;14.10
33877;BMP180;20166;51.738;7.158;2023-08-30T04:16:07;100245.00;;;14.10
33877;BMP180;20166;51.738;7.158;2023-08-30T04:18:54;100252.00;;;14.10
33877;BMP180;20166;51.738;7.158;2023-08-30T04:21:41;100249.00;;;14.10
33877;BMP180;20166;51.738;7.158;2023-08-30T04:24:27;100249.00;;;14.20
33877;BMP180;20166;51.738;7.158;2023-08-30T04:27:14;100237.00;;;14.20
33877;BMP180;20166;51.738;7.158;2023-08-30T04:30:00;100246.00;;;14.20
33877;BMP180;20166;51.738;7.158;2023-08-30T04:32:48;100231.00;;;14.30
33877;BMP180;20166;51.738;7.158;2023-08-30T04:35:34;100231.00;;;14.30
33877;BMP180;20166;51.738;7.158;2023-08-30T04:38:21;100237.00;;;14.30
33877;BMP180;20166;51.738;7.158;2023-08-30T04:41:07;100223.00;;;14.20
33877;BMP180;20166;51.738;7.158;2023-08-30T04:43:53;100230.00;;;14.20
33877;BMP180;20166;51.738;7.158;2023-08-30T04:46:40;100224.00;;;14.20
33877;BMP180;20166;51.738;7.158;2023-08-30T04:49:28;100227.00;;;14.10
33877;BMP180;20166;51.738;7.158;2023-08-30T04:52:14;100222.00;;;14.10
33877;BMP180;20166;51.738;7.158;2023-08-30T04:55:01;100224.00;;;14.00
33877;BMP180;20166;51.738;7.158;2023-08-30T04:57:47;100218.00;;;14.00
33877;BMP180;20166;51.738;7.158;2023-08-30T05:00:34;100223.00;;;14.00
33877;BMP180;20166;51.738;7.158;2023-08-30T05:03:21;100214.00;;;13.90
33877;BMP180;20166;51.738;7.158;2023-08-30T05:06:08;100215.00;;;13.90
33877;BMP180;20166;51.738;7.158;2023-08-30T05:08:57;100214.00;;;13.90
33877;BMP180;20166;51.738;7.158;2023-08-30T05:11:44;100217.00;;;13.80
33877;BMP180;20166;51.738;7.158;2023-08-30T05:14:31;100204.00;;;13.80
33877;BMP180;20166;51.738;7.158;2023-08-30T05:17:17;100195.00;;;13.80
33877;BMP180;20166;51.738;7.158;2023-08-30T05:20:05;100192.00;;;13.80
33877;BMP180;20166;51.738;7.158;2023-08-30T05:22:53;100188.00;;;13.80
33877;BMP180;20166;51.738;7.158;2023-08-30T05:25:39;100190.00;;;13.80
33877;BMP180;20166;51.738;7.158;2023-08-30T05:28:25;100183.00;;;13.80
33877;BMP180;20166;51.738;7.158;2023-08-30T05:31:12;100185.00;;;13.80
33877;BMP180;20166;51.738;7.158;2023-08-30T05:33:59;100177.00;;;13.80
33877;BMP180;20166;51.738;7.158;2023-08-30T05:36:45;100170.00;;;13.80
33877;BMP180;20166;51.738;7.158;2023-08-30T05:39:34;100166.00;;;13.80
33877;BMP180;20166;51.738;7.158;2023-08-30T05:42:20;100167.00;;;13.90
33877;BMP180;20166;51.738;7.158;2023-08-30T05:45:07;100168.00;;;13.80
33877;BMP180;20166;51.738;7.158;2023-08-30T05:47:54;100167.00;;;13.80
33877;BMP180;20166;51.738;7.158;2023-08-30T05:50:40;100165.00;;;13.90
33877;BMP180;20166;51.738;7.158;2023-08-30T05:53:27;100174.00;;;13.90
33877;BMP180;20166;51.738;7.158;2023-08-30T05:56:15;100168.00;;;14.00
33877;BMP180;20166;51.738;7.158;2023-08-30T05:59:02;100164.00;;;13.90
33877;BMP180;20166;51.738;7.158;2023-08-30T06:01:48;100163.00;;;14.00
33877;BMP180;20166;51.738;7.158;2023-08-30T06:04:35;100161.00;;;14.00
33877;BMP180;20166;51.738;7.158;2023-08-30T06:07:21;100158.00;;;14.00
33877;BMP180;20166;51.738;7.158;2023-08-30T06:10:08;100163.00;;;14.10
33877;BMP180;20166;51.738;7.158;2023-08-30T06:12:55;100160.00;;;14.10
33877;BMP180;20166;51.738;7.158;2023-08-30T06:15:42;100157.00;;;14.20
33877;BMP180;20166;51.738;7.158;2023-08-30T06:18:30;100160.00;;;14.30
33877;BMP180;20166;51.738;7.158;2023-08-30T06:21:17;100153.00;;;14.40
33877;BMP180;20166;51.738;7.158;2023-08-30T06:24:03;100151.00;;;14.40
33877;BMP180;20166;51.738;7.158;2023-08-30T06:26:50;100151.00;;;14.50
33877;BMP180;20166;51.738;7.158;2023-08-30T06:29:38;100148.00;;;14.60
33877;BMP180;20166;51.738;7.158;2023-08-30T06:32:25;100141.00;;;14.60
33877;BMP180;20166;51.738;7.158;2023-08-30T06:35:11;100148.00;;;14.70
33877;BMP180;20166;51.738;7.158;2023-08-30T06:37:58;100156.00;;;14.80
33877;BMP180;20166;51.738;7.158;2023-08-30T06:40:44;100141.00;;;14.90
33877;BMP180;20166;51.738;7.158;2023-08-30T06:43:31;100131.00;;;15.00
33877;BMP180;20166;51.738;7.158;2023-08-30T06:46:19;100123.00;;;15.00
33877;BMP180;20166;51.738;7.158;2023-08-30T06:49:05;100122.00;;;15.20
33877;BMP180;20166;51.738;7.158;2023-08-30T06:51:54;100115.00;;;15.20
33877;BMP180;20166;51.738;7.158;2023-08-30T06:54:40;100117.00;;;15.30
33877;BMP180;20166;51.738;7.158;2023-08-30T06:57:27;100135.00;;;15.50
33877;BMP180;20166;51.738;7.158;2023-08-30T07:00:14;100131.00;;;15.70
33877;BMP180;20166;51.738;7.158;2023-08-30T07:03:02;100126.00;;;15.90
33877;BMP180;20166;51.738;7.158;2023-08-30T07:05:50;100127.00;;;16.00
33877;BMP180;20166;51.738;7.158;2023-08-30T07:08:37;100126.00;;;16.10
33877;BMP180;20166;51.738;7.158;2023-08-30T07:11:23;100120.00;;;16.20
33877;BMP180;20166;51.738;7.158;2023-08-30T07:14:18;100118.00;;;16.30
33877;BMP180;20166;51.738;7.158;2023-08-30T07:17:05;100114.00;;;16.30
33877;BMP180;20166;51.738;7.158;2023-08-30T07:19:53;100111.00;;;16.40
33877;BMP180;20166;51.738;7.158;2023-08-30T07:22:40;100115.00;;;16.40
33877;BMP180;20166;51.738;7.158;2023-08-30T07:25:26;100116.00;;;16.40
33877;BMP180;20166;51.738;7.158;2023-08-30T07:28:13;100118.00;;;16.50
33877;BMP180;20166;51.738;7.158;2023-08-30T07:31:04;100117.00;;;16.60
33877;BMP180;20166;51.738;7.158;2023-08-30T07:33:50;100106.00;;;16.60
33877;BMP180;20166;51.738;7.158;2023-08-30T07:36:38;100097.00;;;16.60
33877;BMP180;20166;51.738;7.158;2023-08-30T07:39:32;100102.00;;;16.70
33877;BMP180;20166;51.738;7.158;2023-08-30T07:42:18;100102.00;;;16.80
33877;BMP180;20166;51.738;7.158;2023-08-30T07:45:06;100095.00;;;16.90
33877;BMP180;20166;51.738;7.158;2023-08-30T07:47:52;100090.00;;;16.90
33877;BMP180;20166;51.738;7.158;2023-08-30T07:50:39;100098.00;;;17.00
33877;BMP180;20166;51.738;7.158;2023-08-30T07:53:27;100101.00;;;17.10
33877;BMP180;20166;51.738;7.158;2023-08-30T07:56:13;100095.00;;;17.20
33877;BMP180;20166;51.738;7.158;2023-08-30T07:58:59;100103.00;;;17.20
33877;BMP180;20166;51.738;7.158;2023-08-30T08:01:46;100091.00;;;17.30
33877;BMP180;20166;51.738;7.158;2023-08-30T08:04:32;100100.00;;;17.30
33877;BMP180;20166;51.738;7.158;2023-08-30T08:07:18;100104.00;;;17.30
33877;BMP180;20166;51.738;7.158;2023-08-30T08:10:07;100094.00;;;17.50
33877;BMP180;20166;51.738;7.158;2023-08-30T08:12:54;100102.00;;;17.60
33877;BMP180;20166;51.738;7.158;2023-08-30T08:15:43;100094.00;;;17.70
33877;BMP180;20166;51.738;7.158;2023-08-30T08:18:30;100097.00;;;17.90
33877;BMP180;20166;51.738;7.158;2023-08-30T08:21:16;100097.00;;;17.90
33877;BMP180;20166;51.738;7.158;2023-08-30T08:24:04;100098.00;;;17.90
33877;BMP180;20166;51.738;7.158;2023-08-30T08:26:52;100101.00;;;18.00
33877;BMP180;20166;51.738;7.158;2023-08-30T08:29:38;100102.00;;;18.00
33877;BMP180;20166;51.738;7.158;2023-08-30T08:32:25;100092.00;;;18.00
33877;BMP180;20166;51.738;7.158;2023-08-30T08:35:11;100099.00;;;18.10
33877;BMP180;20166;51.738;7.158;2023-08-30T08:37:57;100089.00;;;18.10
33877;BMP180;20166;51.738;7.158;2023-08-30T08:40:44;100085.00;;;18.10
33877;BMP180;20166;51.738;7.158;2023-08-30T08:43:33;100078.00;;;18.10
33877;BMP180;20166;51.738;7.158;2023-08-30T08:46:20;100090.00;;;18.20
33877;BMP180;20166;51.738;7.158;2023-08-30T08:49:09;100078.00;;;18.20
33877;BMP180;20166;51.738;7.158;2023-08-30T08:51:57;100078.00;;;18.20
33877;BMP180;20166;51.738;7.158;2023-08-30T08:54:44;100077.00;;;18.40
33877;BMP180;20166;51.738;7.158;2023-08-30T08:57:31;100076.00;;;18.40
33877;BMP180;20166;51.738;7.158;2023-08-30T09:00:19;100074.00;;;18.40
33877;BMP180;20166;51.738;7.158;2023-08-30T09:03:05;100069.00;;;18.40
33877;BMP180;20166;51.738;7.158;2023-08-30T09:05:54;100058.00;;;18.50
33877;BMP180;20166;51.738;7.158;2023-08-30T09:08:41;100070.00;;;18.60
33877;BMP180;20166;51.738;7.158;2023-08-30T09:11:27;100065.00;;;18.80
33877;BMP180;20166;51.738;7.158;2023-08-30T09:14:34;100067.00;;;18.90
33877;BMP180;20166;51.738;7.158;2023-08-30T09:17:22;100062.00;;;19.10
33877;BMP180;20166;51.738;7.158;2023-08-30T09:20:09;100055.00;;;19.20
33877;BMP180;20166;51.738;7.158;2023-08-30T09:22:55;100060.00;;;19.20
33877;BMP180;20166;51.738;7.158;2023-08-30T09:25:41;100041.00;;;19.00
33877;BMP180;20166;51.738;7.158;2023-08-30T09:28:28;100059.00;;;18.70
33877;BMP180;20166;51.738;7.158;2023-08-30T09:31:18;100057.00;;;18.50
33877;BMP180;20166;51.738;7.158;2023-08-30T09:34:09;100063.00;;;18.40
33877;BMP180;20166;51.738;7.158;2023-08-30T09:36:56;100057.00;;;18.30
33877;BMP180;20166;51.738;7.158;2023-08-30T09:39:48;100052.00;;;18.30
33877;BMP180;20166;51.738;7.158;2023-08-30T09:42:40;100057.00;;;18.40
33877;BMP180;20166;51.738;7.158;2023-08-30T09:45:26;100049.00;;;18.40
33877;BMP180;20166;51.738;7.158;2023-08-30T09:48:12;100053.00;;;18.50
33877;BMP180;20166;51.738;7.158;2023-08-30T09:51:03;100047.00;;;18.40
33877;BMP180;20166;51.738;7.158;2023-08-30T09:53:53;100037.00;;;18.50
33877;BMP180;20166;51.738;7.158;2023-08-30T09:56:51;100041.00;;;18.40
33877;BMP180;20166;51.738;7.158;2023-08-30T09:59:39;100050.00;;;18.30
33877;BMP180;20166;51.738;7.158;2023-08-30T10:02:25;100046.00;;;18.30
33877;BMP180;20166;51.738;7.158;2023-08-30T10:05:15;100056.00;;;18.30
33877;BMP180;20166;51.738;7.158;2023-08-30T10:08:04;100064.00;;;18.10
33877;BMP180;20166;51.738;7.158;2023-08-30T10:10:53;100070.00;;;18.20
33877;BMP180;20166;51.738;7.158;2023-08-30T10:13:42;100074.00;;;18.20
33877;BMP180;20166;51.738;7.158;2023-08-30T10:16:32;100067.00;;;18.10
33877;BMP180;20166;51.738;7.158;2023-08-30T10:19:24;100083.00;;;18.00
33877;BMP180;20166;51.738;7.158;2023-08-30T10:22:11;100070.00;;;17.90
33877;BMP180;20166;51.738;7.158;2023-08-30T10:25:04;100078.00;;;17.80
33877;BMP180;20166;51.738;7.158;2023-08-30T10:27:56;100079.00;;;17.70
33877;BMP180;20166;51.738;7.158;2023-08-30T10:30:43;100078.00;;;17.50
33877;BMP180;20166;51.738;7.158;2023-08-30T10:33:30;100070.00;;;17.50
33877;BMP180;20166;51.738;7.158;2023-08-30T10:36:22;100068.00;;;17.30
33877;BMP180;20166;51.738;7.158;2023-08-30T10:39:11;100078.00;;;17.30
33877;BMP180;20166;51.738;7.158;2023-08-30T10:41:59;100075.00;;;17.10
33877;BMP180;20166;51.738;7.158;2023-08-30T10:44:49;100076.00;;;17.10
33877;BMP180;20166;51.738;7.158;2023-08-30T10:47:56;100059.00;;;17.00
33877;BMP180;20166;51.738;7.158;2023-08-30T10:50:43;100058.00;;;17.00
33877;BMP180;20166;51.738;7.158;2023-08-30T10:53:29;100070.00;;;17.00
33877;BMP180;20166;51.738;7.158;2023-08-30T10:56:16;100066.00;;;16.80
33877;BMP180;20166;51.738;7.158;2023-08-30T10:59:04;100066.00;;;16.90
33877;BMP180;20166;51.738;7.158;2023-08-30T11:01:51;100063.00;;;16.90
33877;BMP180;20166;51.738;7.158;2023-08-30T11:04:40;100066.00;;;16.80
33877;BMP180;20166;51.738;7.158;2023-08-30T11:07:27;100065.00;;;16.80
33877;BMP180;20166;51.738;7.158;2023-08-30T11:10:14;100068.00;;;16.70
33877;BMP180;20166;51.738;7.158;2023-08-30T11:13:01;100050.00;;;16.80
33877;BMP180;20166;51.738;7.158;2023-08-30T11:15:50;100050.00;;;16.70
33877;BMP180;20166;51.738;7.158;2023-08-30T11:18:37;100060.00;;;16.60
33877;BMP180;20166;51.738;7.158;2023-08-30T11:21:24;100056.00;;;16.70
33877;BMP180;20166;51.738;7.158;2023-08-30T11:24:11;100060.00;;;16.70
33877;BMP180;20166;51.738;7.158;2023-08-30T11:26:57;100059.00;;;16.60
33877;BMP180;20166;51.738;7.158;2023-08-30T11:29:43;100057.00;;;16.60
33877;BMP180;20166;51.738;7.158;2023-08-30T11:32:33;100055.00;;;16.60
33877;BMP180;20166;51.738;7.158;2023-08-30T11:35:21;100056.00;;;16.60
33877;BMP180;20166;51.738;7.158;2023-08-30T11:38:07;100059.00;;;16.70
33877;BMP180;20166;51.738;7.158;2023-08-30T11:40:54;100060.00;;;16.70
33877;BMP180;20166;51.738;7.158;2023-08-30T11:43:41;100055.00;;;16.50
33877;BMP180;20166;51.738;7.158;2023-08-30T11:46:30;100057.00;;;16.50
33877;BMP180;20166;51.738;7.158;2023-08-30T11:49:18;100048.00;;;16.50
33877;BMP180;20166;51.738;7.158;2023-08-30T11:52:05;100055.00;;;16.50
33877;BMP180;20166;51.738;7.158;2023-08-30T11:54:53;100045.00;;;16.40
33877;BMP180;20166;51.738;7.158;2023-08-30T11:57:43;100034.00;;;16.50
33877;BMP180;20166;51.738;7.158;2023-08-30T12:00:32;100034.00;;;16.60
33877;BMP180;20166;51.738;7.158;2023-08-30T12:03:19;100035.00;;;16.60
33877;BMP180;20166;51.738;7.158;2023-08-30T12:06:10;100042.00;;;16.60
33877;BMP180;20166;51.738;7.158;2023-08-30T12:08:58;100047.00;;;16.60
33877;BMP180;20166;51.738;7.158;2023-08-30T12:11:44;100044.00;;;16.60
33877;BMP180;20166;51.738;7.158;2023-08-30T12:14:33;100038.00;;;16.70
33877;BMP180;20166;51.738;7.158;2023-08-30T12:17:20;100040.00;;;16.70
33877;BMP180;20166;51.738;7.158;2023-08-30T12:20:14;100049.00;;;16.80
33877;BMP180;20166;51.738;7.158;2023-08-30T12:23:02;100040.00;;;17.00
33877;BMP180;20166;51.738;7.158;2023-08-30T12:25:59;100043.00;;;17.00
33877;BMP180;20166;51.738;7.158;2023-08-30T12:28:45;100029.00;;;17.10
33877;BMP180;20166;51.738;7.158;2023-08-30T12:31:32;100027.00;;;17.20
33877;BMP180;20166;51.738;7.158;2023-08-30T12:34:18;100028.00;;;17.10
33877;BMP180;20166;51.738;7.158;2023-08-30T12:37:04;100024.00;;;17.20
33877;BMP180;20166;51.738;7.158;2023-08-30T12:39:52;100020.00;;;17.20
33877;BMP180;20166;51.738;7.158;2023-08-30T12:42:39;100027.00;;;17.20
33877;BMP180;20166;51.738;7.158;2023-08-30T12:45:25;100030.00;;;17.20
33877;BMP180;20166;51.738;7.158;2023-08-30T12:48:13;100024.00;;;17.30
33877;BMP180;20166;51.738;7.158;2023-08-30T12:51:00;100017.00;;;17.40
33877;BMP180;20166;51.738;7.158;2023-08-30T12:53:48;100021.00;;;17.40
33877;BMP180;20166;51.738;7.158;2023-08-30T12:56:36;100021.00;;;17.40
33877;BMP180;20166;51.738;7.158;2023-08-30T12:59:22;100009.00;;;17.40
33877;BMP180;20166;51.738;7.158;2023-08-30T13:02:09;100009.00;;;17.40
33877;BMP180;20166;51.738;7.158;2023-08-30T13:04:55;100005.00;;;17.40
33877;BMP180;20166;51.738;7.158;2023-08-30T13:07:43;100000.00;;;17.40
33877;BMP180;20166;51.738;7.158;2023-08-30T13:10:30;99995.00;;;17.30
33877;BMP180;20166;51.738;7.158;2023-08-30T13:13:18;99992.00;;;17.20
33877;BMP180;20166;51.738;7.158;2023-08-30T13:16:06;99996.00;;;17.30
33877;BMP180;20166;51.738;7.158;2023-08-30T13:18:52;100001.00;;;17.30
33877;BMP180;20166;51.738;7.158;2023-08-30T13:21:39;100007.00;;;17.20
33877;BMP180;20166;51.738;7.158;2023-08-30T13:24:27;100004.00;;;17.20
33877;BMP180;20166;51.738;7.158;2023-08-30T13:27:15;100015.00;;;17.20
33877;BMP180;20166;51.738;7.158;2023-08-30T13:30:03;100008.00;;;17.20
33877;BMP180;20166;51.738;7.158;2023-08-30T13:32:50;100017.00;;;17.10
33877;BMP180;20166;51.738;7.158;2023-08-30T13:35:38;100004.00;;;17.00
33877;BMP180;20166;51.738;7.158;2023-08-30T13:38:25;100006.00;;;17.20
33877;BMP180;20166;51.738;7.158;2023-08-30T13:41:11;100009.00;;;17.30
33877;BMP180;20166;51.738;7.158;2023-08-30T13:43:58;100001.00;;;17.40
33877;BMP180;20166;51.738;7.158;2023-08-30T13:46:49;99998.00;;;17.40
33877;BMP180;20166;51.738;7.158;2023-08-30T13:49:36;100013.00;;;17.50
33877;BMP180;20166;51.738;7.158;2023-08-30T13:52:23;100022.00;;;17.40
33877;BMP180;20166;51.738;7.158;2023-08-30T13:55:09;100031.00;;;17.40
33877;BMP180;20166;51.738;7.158;2023-08-30T13:57:55;100029.00;;;17.40
33877;BMP180;20166;51.738;7.158;2023-08-30T14:00:44;100017.00;;;17.30
33877;BMP180;20166;51.738;7.158;2023-08-30T14:03:32;100018.00;;;17.20
33877;BMP180;20166;51.738;7.158;2023-08-30T14:06:18;100008.00;;;17.30
33877;BMP180;20166;51.738;7.158;2023-08-30T14:09:04;100005.00;;;17.30
33877;BMP180;20166;51.738;7.158;2023-08-30T14:11:53;100000.00;;;17.30
33877;BMP180;20166;51.738;7.158;2023-08-30T14:14:41;100010.00;;;17.30
33877;BMP180;20166;51.738;7.158;2023-08-30T14:17:27;100009.00;;;17.40
33877;BMP180;20166;51.738;7.158;2023-08-30T14:20:15;99993.00;;;17.30
33877;BMP180;20166;51.738;7.158;2023-08-30T14:23:02;100003.00;;;17.30
33877;BMP180;20166;51.738;7.158;2023-08-30T14:25:55;99996.00;;;17.30
33877;BMP180;20166;51.738;7.158;2023-08-30T14:28:41;99994.00;;;17.30
33877;BMP180;20166;51.738;7.158;2023-08-30T14:31:28;99999.00;;;17.30
33877;BMP180;20166;51.738;7.158;2023-08-30T14:34:15;100010.00;;;17.30
33877;BMP180;20166;51.738;7.158;2023-08-30T14:37:03;100023.00;;;17.30
33877;BMP180;20166;51.738;7.158;2023-08-30T14:39:52;100026.00;;;17.20
33877;BMP180;20166;51.738;7.158;2023-08-30T14:42:39;100031.00;;;17.10
33877;BMP180;20166;51.738;7.158;2023-08-30T14:45:25;100025.00;;;17.10
33877;BMP180;20166;51.738;7.158;2023-08-30T14:48:11;100027.00;;;17.10
33877;BMP180;20166;51.738;7.158;2023-08-30T14:50:58;100024.00;;;17.10
33877;BMP180;20166;51.738;7.158;2023-08-30T14:53:46;100017.00;;;17.10
33877;BMP180;20166;51.738;7.158;2023-08-30T14:56:32;100010.00;;;17.20
33877;BMP180;20166;51.738;7.158;2023-08-30T14:59:18;100015.00;;;17.20
33877;BMP180;20166;51.738;7.158;2023-08-30T15:02:06;100004.00;;;17.20
33877;BMP180;20166;51.738;7.158;2023-08-30T15:04:52;100000.00;;;17.20
33877;BMP180;20166;51.738;7.158;2023-08-30T15:07:38;100022.00;;;17.20
33877;BMP180;20166;51.738;7.158;2023-08-30T15:10:26;100016.00;;;17.20
33877;BMP180;20166;51.738;7.158;2023-08-30T15:13:14;100013.00;;;17.30
33877;BMP180;20166;51.738;7.158;2023-08-30T15:16:00;100013.00;;;17.40
33877;BMP180;20166;51.738;7.158;2023-08-30T15:18:47;100009.00;;;17.40
33877;BMP180;20166;51.738;7.158;2023-08-30T15:21:35;100022.00;;;17.40
33877;BMP180;20166;51.738;7.158;2023-08-30T15:24:21;100023.00;;;17.30
33877;BMP180;20166;51.738;7.158;2023-08-30T15:27:09;100014.00;;;17.30
33877;BMP180;20166;51.738;7.158;2023-08-30T15:29:55;100015.00;;;17.20
33877;BMP180;20166;51.738;7.158;2023-08-30T15:32:42;100010.00;;;17.20
33877;BMP180;20166;51.738;7.158;2023-08-30T15:35:29;100002.00;;;17.20
33877;BMP180;20166;51.738;7.158;2023-08-30T15:38:15;100005.00;;;17.10
33877;BMP180;20166;51.738;7.158;2023-08-30T15:41:06;100010.00;;;17.20
33877;BMP180;20166;51.738;7.158;2023-08-30T15:43:54;100011.00;;;17.10
33877;BMP180;20166;51.738;7.158;2023-08-30T15:46:41;100003.00;;;17.00
33877;BMP180;20166;51.738;7.158;2023-08-30T15:49:27;100020.00;;;16.90
33877;BMP180;20166;51.738;7.158;2023-08-30T15:52:14;100020.00;;;16.90